Time;durP1;ratioP1;P1;durP2;ratioP2;P2;SDS_P1;SDS_P2;PMS_P1;PMS_P2;Temp;Humidity;BMP_temperature;BMP_pressure;BME280_temperature;BME280_humidity;BME280_pressure;Samples;Min_cycle;Max_cycle;Signal;HPM_P1;HPM_P2
2023/05/01 00:08:47;;;;;;;5.9;2.3;;;;;;;3;71.4;99190;;;;
2023/05/01 00:19:47;;;;;;;5.9;2.3;;;;;;;2.8;71.6;99200;;;;
2023/05/01 00:29:47;;;;;;;6.3;3.1;;;;;;;2.7;72;99190;;;;
2023/05/01 00:40:47;;;;;;;6.3;3.1;;;;;;;2.5;72.3;99190;;;;
2023/05/01 00:51:47;;;;;;;6.3;3.1;;;;;;;2.4;73.5;99190;;;;
2023/05/01 01:01:47;;;;;;;6.1;3.3;;;;;;;2.3;73.8;99200;;;;
2023/05/01 01:12:47;;;;;;;6.1;3.3;;;;;;;2.1;73.9;99200;;;;
2023/05/01 01:22:47;;;;;;;5.1;2.2;;;;;;;2;74.1;99190;;;;
2023/05/01 01:33:47;;;;;;;5.1;2.2;;;;;;;1.8;74.3;99200;;;;
2023/05/01 01:43:47;;;;;;;5.1;2.2;;;;;;;1.7;74.9;99190;;;;
2023/05/01 01:54:47;;;;;;;7.5;3.6;;;;;;;1.6;76;99180;;;;
2023/05/01 02:04:47;;;;;;;7.5;3.6;;;;;;;1.5;76.5;99180;;;;
2023/05/01 02:14:47;;;;;;;7.5;3.6;;;;;;;1.4;77;99180;;;;
2023/05/01 02:24:47;;;;;;;7.9;4.3;;;;;;;1.3;78.6;99170;;;;
2023/05/01 02:34:47;;;;;;;7.9;4.3;;;;;;;1.3;79;99170;;;;
2023/05/01 02:45:47;;;;;;;7.9;4.3;;;;;;;1.2;78.6;99160;;;;
2023/05/01 02:55:47;;;;;;;7;3.4;;;;;;;1.1;78.6;99150;;;;
2023/05/01 03:05:47;;;;;;;7;3.4;;;;;;;1;78.6;99150;;;;
2023/05/01 03:15:47;;;;;;;;;;;;;;;0.9;79.4;99140;;;;
2023/05/01 03:25:47;;;;;;;6.1;3.4;;;;;;;0.9;79.5;99140;;;;
2023/05/01 03:36:47;;;;;;;6.1;3.4;;;;;;;1;79.9;99130;;;;
2023/05/01 03:47:47;;;;;;;6.1;3.4;;;;;;;1.1;80;99120;;;;
2023/05/01 03:57:47;;;;;;;6.3;3.7;;;;;;;1.2;80.2;99120;;;;
2023/05/01 04:07:47;;;;;;;6.3;3.7;;;;;;;1.3;80.8;99130;;;;
2023/05/01 04:18:47;;;;;;;6.3;3.7;;;;;;;1.5;81.9;99130;;;;
2023/05/01 04:28:47;;;;;;;7.5;4.7;;;;;;;1.9;82.2;99140;;;;
2023/05/01 04:39:47;;;;;;;7.5;4.7;;;;;;;2.3;81.9;99130;;;;
2023/05/01 04:49:47;;;;;;;7.5;4.7;;;;;;;2.7;81.5;99130;;;;
2023/05/01 05:00:47;;;;;;;9;4.6;;;;;;;3.2;80.9;99120;;;;
2023/05/01 05:11:47;;;;;;;9;4.6;;;;;;;3.8;80.1;99120;;;;
2023/05/01 05:21:47;;;;;;;9.7;5.1;;;;;;;4.4;79.5;99120;;;;
2023/05/01 05:32:47;;;;;;;9.7;5.1;;;;;;;5.2;78.5;99120;;;;
2023/05/01 05:42:47;;;;;;;9.7;5.1;;;;;;;5.8;77.2;99120;;;;
2023/05/01 05:53:47;;;;;;;10.9;5.6;;;;;;;6.6;75.4;99120;;;;
2023/05/01 06:04:47;;;;;;;10.9;5.6;;;;;;;7.4;73.9;99120;;;;
2023/05/01 06:15:47;;;;;;;10.9;5.6;;;;;;;8.2;69.2;99120;;;;
2023/05/01 06:25:47;;;;;;;9.8;5.1;;;;;;;8.8;67.1;99120;;;;
2023/05/01 06:35:47;;;;;;;9.8;5.1;;;;;;;9.5;63.6;99110;;;;
2023/05/01 06:45:47;;;;;;;9.8;5.1;;;;;;;10.2;62.1;99120;;;;
2023/05/01 06:56:47;;;;;;;6.2;3.8;;;;;;;10.8;54.7;99110;;;;
2023/05/01 07:06:48;;;;;;;6.2;3.8;;;;;;;11.1;53.2;99110;;;;
2023/05/01 07:16:47;;;;;;;6.2;3.8;;;;;;;11.4;51.7;99110;;;;
2023/05/01 07:26:47;;;;;;;9;3.1;;;;;;;11.6;49.4;99100;;;;
2023/05/01 07:37:47;;;;;;;9;3.1;;;;;;;12;48.8;99110;;;;
2023/05/01 07:48:47;;;;;;;9;3.1;;;;;;;12.4;48;99110;;;;
2023/05/01 07:58:47;;;;;;;8.7;3;;;;;;;12.9;48.4;99100;;;;
2023/05/01 08:09:47;;;;;;;8.7;3;;;;;;;13;45.5;99100;;;;
2023/05/01 08:20:47;;;;;;;8.7;3;;;;;;;13.2;46.2;99100;;;;
2023/05/01 08:31:47;;;;;;;7.9;5;;;;;;;13.4;46.2;99100;;;;
2023/05/01 08:41:47;;;;;;;7.9;5;;;;;;;13.5;46;99090;;;;
2023/05/01 08:52:48;;;;;;;11.1;3.8;;;;;;;13.9;46.8;99080;;;;
2023/05/01 09:02:47;;;;;;;11.1;3.8;;;;;;;14.1;44.6;99080;;;;
2023/05/01 09:13:47;;;;;;;11.1;3.8;;;;;;;14.3;45.8;99060;;;;
2023/05/01 09:23:47;;;;;;;6.2;3.8;;;;;;;14.5;44.5;99050;;;;
2023/05/01 09:34:48;;;;;;;6.2;3.8;;;;;;;15;44.4;99040;;;;
2023/05/01 09:45:47;;;;;;;6.2;3.8;;;;;;;15.3;45.6;99030;;;;
2023/05/01 09:55:47;;;;;;;7;3;;;;;;;15.1;42.4;99020;;;;
2023/05/01 10:05:47;;;;;;;7;3;;;;;;;15.5;44;99010;;;;
2023/05/01 10:15:48;;;;;;;7;3;;;;;;;15.8;41.2;99000;;;;
2023/05/01 10:25:47;;;;;;;6;2.7;;;;;;;16.1;42.3;98990;;;;
2023/05/01 10:35:47;;;;;;;6;2.7;;;;;;;16.3;40.5;98980;;;;
2023/05/01 10:46:47;;;;;;;6;2.7;;;;;;;16.6;41.3;98970;;;;
2023/05/01 10:57:47;;;;;;;6.7;2.5;;;;;;;16.6;39.2;98960;;;;
2023/05/01 11:07:47;;;;;;;6.7;2.5;;;;;;;16.8;38.4;98960;;;;
2023/05/01 11:17:48;;;;;;;6.7;2.5;;;;;;;17;39.9;98940;;;;
2023/05/01 11:28:47;;;;;;;11;3.1;;;;;;;17.2;38.6;98920;;;;
2023/05/01 11:39:47;;;;;;;11;3.1;;;;;;;17.5;39.7;98910;;;;
2023/05/01 11:50:47;;;;;;;11;3.1;;;;;;;17.5;38.5;98910;;;;
2023/05/01 12:01:48;;;;;;;7;2.4;;;;;;;17.8;37.8;98900;;;;
2023/05/01 12:11:47;;;;;;;7;2.4;;;;;;;17.8;38.2;98890;;;;
2023/05/01 12:21:47;;;;;;;5.9;2.7;;;;;;;17.9;38.5;98870;;;;
2023/05/01 12:31:47;;;;;;;5.9;2.7;;;;;;;18.3;38.4;98860;;;;
2023/05/01 12:42:47;;;;;;;5.9;2.7;;;;;;;18.3;39.1;98840;;;;
2023/05/01 12:53:47;;;;;;;7.7;4;;;;;;;18.4;39.6;98830;;;;
2023/05/01 13:04:47;;;;;;;7.7;4;;;;;;;18.6;39.4;98820;;;;
2023/05/01 13:15:47;;;;;;;7.7;4;;;;;;;18.8;38.4;98810;;;;
2023/05/01 13:26:48;;;;;;;5.1;2.8;;;;;;;19;37.6;98790;;;;
2023/05/01 13:36:47;;;;;;;5.1;2.8;;;;;;;19.2;38.2;98780;;;;
2023/05/01 13:47:47;;;;;;;5.1;2.8;;;;;;;19.2;35.5;98770;;;;
2023/05/01 13:58:48;;;;;;;6.2;2.5;;;;;;;19.5;36.5;98770;;;;
2023/05/01 14:08:48;;;;;;;6.2;2.5;;;;;;;19.5;34.6;98750;;;;
2023/05/01 14:19:47;;;;;;;6.2;2.5;;;;;;;19.8;33.5;98730;;;;
2023/05/01 14:29:48;;;;;;;4.4;2.3;;;;;;;20;34.4;98720;;;;
2023/05/01 14:39:47;;;;;;;4.4;2.3;;;;;;;20.2;33.3;98710;;;;
2023/05/01 14:50:47;;;;;;;4.4;2.3;;;;;;;20.5;33.4;98710;;;;
2023/05/01 15:00:47;;;;;;;5.2;2.9;;;;;;;20.5;32.4;98690;;;;
2023/05/01 15:10:48;;;;;;;5.2;2.9;;;;;;;21.1;31.1;98690;;;;
2023/05/01 15:21:47;;;;;;;6.3;2.8;;;;;;;24.1;27.7;98680;;;;
2023/05/01 15:32:47;;;;;;;6.3;2.8;;;;;;;24.5;27.3;98660;;;;
2023/05/01 15:42:47;;;;;;;6.3;2.8;;;;;;;24.6;26.7;98650;;;;
2023/05/01 15:52:47;;;;;;;5.7;2.5;;;;;;;23.4;28.5;98660;;;;
2023/05/01 16:03:47;;;;;;;5.7;2.5;;;;;;;21.3;31.8;98650;;;;
2023/05/01 16:14:47;;;;;;;5.7;2.5;;;;;;;21.7;31.5;98640;;;;
2023/05/01 16:25:47;;;;;;;5.7;2.6;;;;;;;20.6;34.5;98630;;;;
2023/05/01 16:35:48;;;;;;;5.7;2.6;;;;;;;19.8;36.5;98630;;;;
2023/05/01 16:46:47;;;;;;;5.7;2.6;;;;;;;19.1;38.1;98630;;;;
2023/05/01 16:56:48;;;;;;;6.9;2.9;;;;;;;18.6;40;98630;;;;
2023/05/01 17:07:48;;;;;;;6.9;2.9;;;;;;;18.2;40.8;98630;;;;
2023/05/01 17:18:47;;;;;;;6.9;2.9;;;;;;;18.5;40.6;98630;;;;
2023/05/01 17:28:49;;;;;;;8.5;3.6;;;;;;;18.3;41.3;98610;;;;
2023/05/01 17:39:47;;;;;;;8.5;3.6;;;;;;;17.1;42.7;98610;;;;
2023/05/01 17:49:47;;;;;;;8.5;3.6;;;;;;;16.4;44.1;98610;;;;
2023/05/01 18:00:47;;;;;;;9.6;6.4;;;;;;;15.8;45.5;98610;;;;
2023/05/01 18:10:48;;;;;;;9.6;6.4;;;;;;;15.3;46.1;98600;;;;
2023/05/01 18:21:47;;;;;;;14.3;9.8;;;;;;;14.7;47.7;98600;;;;
2023/05/01 18:31:49;;;;;;;14.3;9.8;;;;;;;14.4;48.1;98610;;;;
2023/05/01 18:41:47;;;;;;;14.3;9.8;;;;;;;14;48.9;98610;;;;
2023/05/01 18:51:47;;;;;;;11.4;8.2;;;;;;;13.7;50;98610;;;;
2023/05/01 19:02:50;;;;;;;11.4;8.2;;;;;;;13.3;50.5;98610;;;;
2023/05/01 19:13:47;;;;;;;11.4;8.2;;;;;;;12.7;54.5;98620;;;;
2023/05/01 19:23:48;;;;;;;15.3;7.6;;;;;;;12.3;53.8;98620;;;;
2023/05/01 19:33:48;;;;;;;15.3;7.6;;;;;;;11.8;55.8;98620;;;;
2023/05/01 19:43:47;;;;;;;15.3;7.6;;;;;;;11.5;56.9;98620;;;;
2023/05/01 19:53:48;;;;;;;15.1;7.6;;;;;;;11.2;58.9;98620;;;;
2023/05/01 20:03:47;;;;;;;15.1;7.6;;;;;;;10.9;58.9;98620;;;;
2023/05/01 20:14:47;;;;;;;15.1;7.6;;;;;;;10.4;58.8;98610;;;;
2023/05/01 20:24:47;;;;;;;36.9;18.5;;;;;;;10.1;60;98610;;;;
2023/05/01 20:35:48;;;;;;;36.9;18.5;;;;;;;9.8;64.4;98610;;;;
2023/05/01 20:46:48;;;;;;;36.9;18.5;;;;;;;9.6;66.3;98620;;;;
2023/05/01 20:57:48;;;;;;;23.9;12.3;;;;;;;9.3;67.2;98620;;;;
2023/05/01 21:08:47;;;;;;;23.9;12.3;;;;;;;9.2;67.5;98620;;;;
2023/05/01 21:19:48;;;;;;;23.9;12.3;;;;;;;9;65.8;98640;;;;
2023/05/01 21:30:48;;;;;;;14.1;7.8;;;;;;;8.8;65.6;98640;;;;
2023/05/01 21:41:48;;;;;;;14.1;7.8;;;;;;;8.6;66.2;98650;;;;
2023/05/01 21:52:48;;;;;;;12.5;6.7;;;;;;;8.6;68.9;98670;;;;
2023/05/01 22:02:48;;;;;;;12.5;6.7;;;;;;;8.5;70.5;98670;;;;
2023/05/01 22:12:48;;;;;;;12.5;6.7;;;;;;;8.4;70.4;98680;;;;
2023/05/01 22:22:48;;;;;;;13.6;6.7;;;;;;;8.2;70.2;98690;;;;
2023/05/01 22:32:48;;;;;;;13.6;6.7;;;;;;;8;70;98690;;;;
2023/05/01 22:43:48;;;;;;;13.6;6.7;;;;;;;7.9;72;98690;;;;
2023/05/01 22:54:50;;;;;;;12.2;6.8;;;;;;;7.8;71.7;98690;;;;
2023/05/01 23:05:48;;;;;;;12.2;6.8;;;;;;;7.7;71.5;98690;;;;
2023/05/01 23:16:48;;;;;;;12.2;6.8;;;;;;;7.5;72.8;98690;;;;
2023/05/01 23:26:48;;;;;;;12.4;6.5;;;;;;;7.4;72.5;98700;;;;
2023/05/01 23:36:48;;;;;;;12.4;6.5;;;;;;;7.3;72.7;98690;;;;
2023/05/01 23:46:48;;;;;;;12.4;6.5;;;;;;;7.2;74.1;98690;;;;
2023/05/01 23:57:48;;;;;;;12.9;6.4;;;;;;;7.2;74.1;98690;;;;
